Time;durP1;ratioP1;P1;durP2;ratioP2;P2;SDS_P1;SDS_P2;PMS_P1;PMS_P2;Temp;Humidity;BMP_temperature;BMP_pressure;BME280_temperature;BME280_humidity;BME280_pressure;Samples;Min_cycle;Max_cycle;Signal;HPM_P1;HPM_P2
2023/06/08 00:02:39;;;;;;;1.10;0.70;;;;;;;20.85;80.02;99657.94;10210378;28;96710;-80
2023/06/08 00:07:45;;;;;;;1.75;0.75;;;;;;;20.65;80.66;99651.75;10213879;28;96730;-79
2023/06/08 00:12:48;;;;;;;1.70;0.80;;;;;;;20.56;80.83;99643.72;10240264;28;96954;-80
2023/06/08 00:17:52;;;;;;;2.33;0.90;;;;;;;20.51;81.19;99641.47;10255083;28;96789;-80
2023/06/08 00:22:57;;;;;;;2.37;1.10;;;;;;;20.49;81.10;99642.56;10238398;28;97438;-80
2023/06/08 00:28:18;;;;;;;2.03;1.00;;;;;;;20.61;80.59;99641.47;10213942;28;96991;-79
2023/06/08 00:33:21;;;;;;;1.40;0.70;;;;;;;20.58;80.54;99645.28;10214804;28;96733;-80
2023/06/08 00:38:26;;;;;;;2.15;0.80;;;;;;;20.65;80.33;99641.06;10214470;28;96894;-79
2023/06/08 00:43:29;;;;;;;1.77;0.90;;;;;;;20.72;80.11;99634.19;10213725;28;96689;-80
2023/06/08 00:48:33;;;;;;;1.57;0.90;;;;;;;20.70;80.32;99640.63;10213229;28;96664;-80
2023/06/08 00:53:38;;;;;;;2.70;1.10;;;;;;;20.67;80.57;99643.59;10213708;28;96743;-80
2023/06/08 00:58:46;;;;;;;1.48;1.00;;;;;;;20.73;80.51;99637.69;10213601;28;97702;-80
2023/06/08 01:03:50;;;;;;;2.00;1.00;;;;;;;20.70;80.53;99624.59;10217325;28;96900;-79
2023/06/08 01:09:03;;;;;;;1.73;1.10;;;;;;;20.70;80.39;99613.91;10220256;28;97391;-80
2023/06/08 01:14:18;;;;;;;2.88;1.50;;;;;;;20.45;81.32;99614.41;10220477;28;96570;-80
2023/06/08 01:19:36;;;;;;;1.45;0.90;;;;;;;20.45;81.28;99617.09;10215297;28;96602;-80
2023/06/08 01:25:00;;;;;;;2.45;1.17;;;;;;;20.33;81.35;99630.59;10209271;28;96612;-80
2023/06/08 01:30:04;;;;;;;0.80;0.70;;;;;;;20.18;82.44;99628.41;10214693;28;96684;-80
2023/06/08 01:35:08;;;;;;;1.65;0.82;;;;;;;20.33;81.43;99630.59;10214454;28;96782;-80
2023/06/08 01:40:20;;;;;;;1.70;1.17;;;;;;;20.41;80.88;99634.41;10213387;28;96720;-80
2023/06/08 01:45:27;;;;;;;1.60;1.00;;;;;;;20.33;81.29;99643.09;10213906;28;96652;-80
2023/06/08 01:50:32;;;;;;;1.83;1.17;;;;;;;20.26;81.67;99639.25;10213908;28;97243;-80
2023/06/08 01:55:37;;;;;;;1.90;1.10;;;;;;;20.06;82.30;99643.69;10214599;28;97735;-80
2023/06/08 02:00:40;;;;;;;3.75;1.10;;;;;;;20.06;82.60;99614.31;10213125;28;96821;-80
2023/06/08 02:05:43;;;;;;;2.17;1.10;;;;;;;20.14;81.92;99619.81;10212675;28;96658;-80
2023/06/08 02:10:48;;;;;;;2.70;1.20;;;;;;;19.97;82.44;99598.25;10230609;28;97797;-80
2023/06/08 02:15:52;;;;;;;2.05;1.10;;;;;;;20.08;81.90;99611.50;10254392;28;96789;-80
2023/06/08 02:20:55;;;;;;;1.85;1.38;;;;;;;20.06;82.01;99621.47;10252969;28;97345;-80
2023/06/08 02:26:00;;;;;;;1.00;0.82;;;;;;;19.99;82.23;99617.66;10252412;28;97122;-80
2023/06/08 02:31:04;;;;;;;1.63;0.80;;;;;;;19.91;82.14;99614.81;10252226;28;96655;-80
2023/06/08 02:36:09;;;;;;;1.90;0.80;;;;;;;19.87;81.91;99603.56;10252808;28;97801;-80
2023/06/08 02:41:14;;;;;;;1.20;0.75;;;;;;;19.83;82.02;99611.97;10252988;28;96672;-79
2023/06/08 02:46:17;;;;;;;1.38;0.95;;;;;;;19.77;82.20;99612.50;10251804;28;96627;-80
2023/06/08 02:51:21;;;;;;;1.17;0.73;;;;;;;19.88;81.57;99601.72;10252704;28;96991;-79
2023/06/08 02:56:26;;;;;;;1.17;0.90;;;;;;;19.87;81.85;99598.22;10252009;28;96731;-80
2023/06/08 03:01:30;;;;;;;1.45;1.02;;;;;;;19.89;81.28;99585.56;10251304;28;97502;-80
2023/06/08 03:06:36;;;;;;;2.03;1.15;;;;;;;19.90;81.20;99589.94;10243507;28;96963;-80
2023/06/08 03:11:41;;;;;;;1.60;0.90;;;;;;;19.75;82.04;99588.59;10211494;28;96801;-80
2023/06/08 03:16:45;;;;;;;1.58;1.20;;;;;;;19.77;81.63;99589.31;10211660;28;96607;-80
2023/06/08 03:21:49;;;;;;;2.15;0.90;;;;;;;19.69;81.73;99580.28;10209760;28;96876;-80
2023/06/08 03:26:55;;;;;;;1.45;0.93;;;;;;;19.70;81.75;99579.31;10210657;28;96888;-80
2023/06/08 03:31:59;;;;;;;1.70;1.08;;;;;;;19.62;82.14;99571.97;10210571;28;96634;-80
2023/06/08 03:37:03;;;;;;;1.85;1.15;;;;;;;19.62;81.78;99568.44;10210960;28;97495;-80
2023/06/08 03:42:09;;;;;;;3.33;1.00;;;;;;;19.56;82.10;99566.34;10210665;28;97062;-80
2023/06/08 03:47:12;;;;;;;2.25;1.13;;;;;;;19.53;82.15;99555.94;10210221;28;96658;-80
2023/06/08 03:52:15;;;;;;;1.48;0.90;;;;;;;19.49;82.13;99554.50;10210882;28;97066;-80
2023/06/08 03:57:20;;;;;;;2.70;1.20;;;;;;;19.51;82.34;99547.22;10210581;28;96866;-80
2023/06/08 04:02:24;;;;;;;3.10;1.50;;;;;;;19.41;82.92;99549.00;10209876;28;97755;-80
2023/06/08 04:07:27;;;;;;;1.70;1.10;;;;;;;19.39;82.95;99550.91;10208951;28;97081;-80
2023/06/08 04:12:32;;;;;;;2.87;1.30;;;;;;;19.47;81.99;99538.63;10208866;28;97053;-79
2023/06/08 04:17:36;;;;;;;1.90;1.00;;;;;;;19.47;81.82;99543.97;10209457;28;97310;-80
2023/06/08 04:22:40;;;;;;;1.90;1.17;;;;;;;19.41;82.03;99536.47;10209065;28;96625;-80
2023/06/08 04:27:45;;;;;;;1.13;0.80;;;;;;;19.38;81.92;99536.72;10209514;28;96838;-80
2023/06/08 04:32:48;;;;;;;1.75;1.00;;;;;;;19.22;82.88;99536.34;10209053;28;96691;-80
2023/06/08 04:37:52;;;;;;;2.17;1.42;;;;;;;19.23;82.99;99538.88;10207612;28;96995;-80
2023/06/08 04:42:59;;;;;;;4.00;1.10;;;;;;;19.27;82.68;99528.78;10208864;28;97934;-80
2023/06/08 04:48:03;;;;;;;2.40;1.75;;;;;;;19.31;82.04;99538.22;10209366;28;97735;-80
2023/06/08 04:53:10;;;;;;;1.92;1.00;;;;;;;19.32;82.05;99541.75;10208181;28;96755;-80
2023/06/08 04:58:16;;;;;;;3.17;1.50;;;;;;;19.28;82.03;99546.50;10208270;28;96714;-80
2023/06/08 05:03:19;;;;;;;3.08;1.40;;;;;;;19.19;82.54;99541.94;10207500;28;96695;-80
2023/06/08 05:08:23;;;;;;;3.10;1.30;;;;;;;19.25;82.34;99536.94;10207761;28;97775;-80
2023/06/08 05:13:27;;;;;;;3.30;1.33;;;;;;;19.26;81.98;99546.63;10207717;28;96728;-80
2023/06/08 05:18:31;;;;;;;1.48;1.10;;;;;;;19.18;82.45;99538.44;10208366;28;97366;-80
2023/06/08 05:23:34;;;;;;;3.63;1.20;;;;;;;19.20;82.51;99530.28;10207585;28;96673;-80
2023/06/08 05:28:39;;;;;;;2.17;1.10;;;;;;;19.28;82.21;99535.84;10207566;28;96975;-80
2023/06/08 05:33:42;;;;;;;2.20;1.27;;;;;;;19.30;82.55;99536.56;10207635;28;96821;-80
2023/06/08 05:38:46;;;;;;;3.20;1.27;;;;;;;19.34;82.18;99540.63;10208312;28;96663;-80
2023/06/08 05:43:51;;;;;;;1.73;1.15;;;;;;;19.40;82.05;99528.56;10207106;28;97064;-80
2023/06/08 05:48:54;;;;;;;2.63;0.90;;;;;;;19.52;81.32;99503.50;10209732;28;96651;-80
2023/06/08 05:53:58;;;;;;;1.70;1.30;;;;;;;19.50;81.09;99502.81;10213322;28;96621;-80
2023/06/08 05:59:02;;;;;;;2.45;1.00;;;;;;;19.51;81.15;99493.84;10213728;28;96637;-80
2023/06/08 06:04:06;;;;;;;1.58;0.88;;;;;;;19.51;81.20;99499.19;10212725;28;96714;-80
2023/06/08 06:09:20;;;;;;;2.10;1.23;;;;;;;19.54;81.37;99497.09;10213919;28;96820;-80
2023/06/08 06:14:25;;;;;;;2.20;1.23;;;;;;;19.64;80.75;99494.44;10213084;28;96774;-80
2023/06/08 06:19:33;;;;;;;2.67;1.20;;;;;;;19.74;80.18;99490.81;10213024;28;96748;-80
2023/06/08 06:24:36;;;;;;;1.50;1.10;;;;;;;19.88;79.88;99489.56;10212689;28;97350;-81
2023/06/08 06:29:41;;;;;;;1.88;1.02;;;;;;;19.95;79.89;99483.53;10213652;28;96851;-80
2023/06/08 06:34:44;;;;;;;2.05;1.35;;;;;;;20.12;79.31;99465.97;10213002;28;96657;-80
2023/06/08 06:39:48;;;;;;;1.58;1.10;;;;;;;20.22;78.75;99456.16;10212666;28;96736;-80
2023/06/08 06:44:53;;;;;;;2.05;1.50;;;;;;;20.35;78.50;99451.41;10212056;28;97582;-80
2023/06/08 06:49:56;;;;;;;2.28;1.25;;;;;;;20.46;78.08;99450.41;10212294;28;97198;-80
2023/06/08 06:55:01;;;;;;;2.67;1.48;;;;;;;20.54;77.97;99450.53;10212055;28;96732;-80
2023/06/08 07:00:10;;;;;;;3.35;1.10;;;;;;;20.70;77.33;99432.94;10211613;28;96679;-81
2023/06/08 07:05:13;;;;;;;3.58;1.23;;;;;;;20.95;75.82;99431.44;10211423;28;96887;-80
2023/06/08 07:10:17;;;;;;;2.63;1.13;;;;;;;21.09;75.12;99453.22;10211373;28;97003;-80
2023/06/08 07:15:22;;;;;;;1.45;1.08;;;;;;;21.20;74.36;99453.09;10216795;28;96856;-81
2023/06/08 07:20:25;;;;;;;1.42;1.02;;;;;;;21.09;74.47;99449.69;10252446;28;96700;-81
2023/06/08 07:25:29;;;;;;;3.13;1.23;;;;;;;21.09;74.94;99452.38;10251055;28;96781;-81
2023/06/08 07:30:54;;;;;;;2.33;1.25;;;;;;;21.47;74.61;99446.88;10251509;28;97210;-81
2023/06/08 07:35:58;;;;;;;1.85;1.10;;;;;;;21.52;74.17;99448.13;10249038;28;97581;-81
2023/06/08 07:41:01;;;;;;;1.60;0.93;;;;;;;21.73;72.51;99455.06;10250918;28;96690;-81
2023/06/08 07:46:06;;;;;;;2.53;1.30;;;;;;;21.86;73.08;99448.34;10250513;28;96727;-81
2023/06/08 07:51:09;;;;;;;2.58;1.50;;;;;;;21.77;72.51;99451.94;10249816;28;96765;-81
2023/06/08 07:56:13;;;;;;;3.00;1.33;;;;;;;21.71;70.88;99443.66;10250483;28;96935;-80
2023/06/08 08:01:17;;;;;;;1.87;1.27;;;;;;;22.21;70.29;99434.97;10250095;28;97709;-81
2023/06/08 08:06:21;;;;;;;1.65;1.15;;;;;;;22.49;68.67;99446.44;10242346;28;96878;-81
2023/06/08 08:11:25;;;;;;;2.33;1.37;;;;;;;22.76;68.63;99445.50;10210207;28;96741;-81
2023/06/08 08:16:29;;;;;;;2.20;1.30;;;;;;;22.97;67.90;99448.69;10209253;28;96607;-81
2023/06/08 08:21:33;;;;;;;1.98;1.20;;;;;;;22.60;67.70;99462.31;10209410;28;96712;-81
2023/06/08 08:26:38;;;;;;;2.93;1.40;;;;;;;22.46;67.85;99468.22;10208508;28;97451;-81
2023/06/08 08:31:43;;;;;;;2.95;1.65;;;;;;;22.62;67.87;99454.94;10209043;28;96679;-81
2023/06/08 08:36:46;;;;;;;2.10;1.25;;;;;;;22.85;67.74;99458.00;10208819;28;96590;-81
2023/06/08 08:41:56;;;;;;;2.15;1.38;;;;;;;22.85;67.24;99452.63;10209138;28;96714;-81
2023/06/08 08:47:02;;;;;;;2.47;1.10;;;;;;;22.98;67.36;99461.09;10208379;28;96652;-81
2023/06/08 08:52:08;;;;;;;2.95;1.92;;;;;;;23.09;67.40;99460.84;10208822;28;96682;-81
2023/06/08 08:57:11;;;;;;;3.70;1.35;;;;;;;23.38;67.53;99456.81;10209445;28;97154;-81
2023/06/08 09:02:16;;;;;;;2.40;1.50;;;;;;;23.45;67.21;99448.94;10209225;28;96834;-81
2023/06/08 09:07:20;;;;;;;1.75;1.20;;;;;;;23.94;65.58;99445.44;10207104;28;96967;-81
2023/06/08 09:12:23;;;;;;;1.83;1.40;;;;;;;23.85;65.42;99443.75;10208107;28;97469;-81
2023/06/08 09:17:37;;;;;;;1.77;1.30;;;;;;;23.71;61.47;99457.81;10237393;28;96834;-81
2023/06/08 09:22:41;;;;;;;1.40;1.10;;;;;;;23.55;60.86;99444.31;10243215;28;96613;-81
2023/06/08 09:27:45;;;;;;;2.30;1.27;;;;;;;23.78;60.58;99437.34;10214710;28;96891;-81
2023/06/08 09:32:49;;;;;;;;;;;;;;;23.78;60.91;99441.88;10215544;28;97798;-81
2023/06/08 09:37:54;;;;;;;2.05;1.23;;;;;;;24.19;60.77;99457.06;10253326;23;99825;-81
2023/06/08 09:42:57;;;;;;;1.20;0.93;;;;;;;24.90;59.73;99457.25;10254323;28;97984;-81
2023/06/08 09:48:11;;;;;;;1.80;1.00;;;;;;;25.25;57.65;99459.59;10251258;28;96688;-81
2023/06/08 09:53:16;;;;;;;2.10;1.00;;;;;;;25.54;57.18;99460.66;10214856;28;97543;-81
2023/06/08 09:58:20;;;;;;;2.75;0.93;;;;;;;25.84;56.80;99462.59;10213852;28;96793;-81
2023/06/08 10:03:32;;;;;;;1.58;1.15;;;;;;;25.73;55.09;99457.56;10213443;28;96888;-81
2023/06/08 10:08:39;;;;;;;1.85;0.90;;;;;;;25.85;56.26;99483.13;10212693;28;97885;-81
2023/06/08 10:13:42;;;;;;;1.75;1.10;;;;;;;26.40;54.45;99468.66;10213295;28;96947;-81
2023/06/08 10:18:47;;;;;;;2.65;1.27;;;;;;;26.04;55.67;99454.88;10213185;28;96797;-82
2023/06/08 10:23:51;;;;;;;1.55;1.02;;;;;;;26.10;55.71;99448.78;10213388;28;96798;-81
2023/06/08 10:29:08;;;;;;;2.25;1.05;;;;;;;26.15;55.84;99434.75;10213290;28;98043;-81
2023/06/08 10:34:16;;;;;;;2.15;1.20;;;;;;;25.76;55.67;99437.53;10209636;28;96789;-81
2023/06/08 10:39:21;;;;;;;2.53;1.10;;;;;;;25.95;55.41;99430.84;10212995;28;97609;-81
2023/06/08 10:44:26;;;;;;;1.80;1.00;;;;;;;25.96;55.79;99432.50;10213024;28;96730;-81
2023/06/08 10:49:32;;;;;;;1.52;1.00;;;;;;;26.26;55.25;99428.94;10212454;28;96636;-82
2023/06/08 10:54:49;;;;;;;1.25;0.95;;;;;;;26.32;54.62;99409.31;10212096;28;97106;-82
2023/06/08 10:59:55;;;;;;;1.67;1.10;;;;;;;26.37;54.24;99415.06;10211517;28;96664;-82
2023/06/08 11:05:00;;;;;;;2.50;0.90;;;;;;;26.66;53.49;99396.25;10211480;28;96861;-81
2023/06/08 11:10:04;;;;;;;1.27;0.80;;;;;;;26.56;52.55;99384.84;10211673;28;98317;-82
2023/06/08 11:15:08;;;;;;;1.58;1.00;;;;;;;26.74;53.13;99385.38;10211727;28;96678;-82
2023/06/08 11:20:14;;;;;;;1.00;0.80;;;;;;;26.88;52.47;99382.69;10211341;28;96572;-82
2023/06/08 11:25:20;;;;;;;1.13;0.70;;;;;;;27.34;52.84;99394.16;10210829;28;97053;-81
2023/06/08 11:30:27;;;;;;;0.85;0.40;;;;;;;26.81;52.60;99357.44;10211620;28;97711;-81
2023/06/08 11:35:32;;;;;;;1.10;0.77;;;;;;;27.07;52.33;99345.38;10210977;28;96929;-82
2023/06/08 11:40:41;;;;;;;1.95;1.13;;;;;;;26.85;51.34;99339.03;10210299;28;96824;-82
2023/06/08 11:45:44;;;;;;;1.75;0.90;;;;;;;27.06;52.73;99316.69;10209724;28;96642;-81
2023/06/08 11:50:50;;;;;;;1.40;1.00;;;;;;;27.51;52.60;99311.00;10242796;28;96987;-82
2023/06/08 11:55:56;;;;;;;0.90;0.70;;;;;;;27.40;51.87;99298.00;10250313;28;96771;-82
2023/06/08 12:01:11;;;;;;;1.58;0.80;;;;;;;28.01;50.76;99282.00;10250334;28;96577;-82
2023/06/08 12:06:18;;;;;;;1.20;0.70;;;;;;;28.35;49.99;99285.84;10249175;28;97421;-81
2023/06/08 12:11:21;;;;;;;0.70;0.70;;;;;;;27.25;50.15;99287.19;10217485;28;96818;-81
2023/06/08 12:16:42;;;;;;;0.70;0.70;;;;;;;26.66;52.82;99304.47;10209554;28;97549;-81
2023/06/08 12:21:46;;;;;;;1.20;0.80;;;;;;;25.46;55.50;99349.41;10210215;28;97072;-81
2023/06/08 12:26:49;;;;;;;1.67;0.93;;;;;;;24.15;65.48;99357.06;10208346;28;96733;-81
2023/06/08 12:31:53;;;;;;;0.97;0.60;;;;;;;24.07;64.48;99337.44;10209121;28;97543;-81
2023/06/08 12:36:59;;;;;;;0.80;0.50;;;;;;;24.24;62.15;99321.13;10207963;28;96778;-81
2023/06/08 12:42:02;;;;;;;0.95;0.57;;;;;;;24.39;61.84;99324.81;10243076;28;96685;-81
2023/06/08 12:47:06;;;;;;;0.30;0.30;;;;;;;24.60;61.88;99308.16;10248733;28;96796;-81
2023/06/08 12:52:11;;;;;;;;;;;;;;;25.50;57.48;99299.53;10249374;28;96616;-81
2023/06/08 12:57:14;;;;;;;0.57;0.50;;;;;;;26.20;58.66;99292.94;10247079;28;96588;-82
2023/06/08 13:02:19;;;;;;;0.77;0.40;;;;;;;26.39;56.13;99305.09;10247839;28;96678;-82
2023/06/08 13:07:24;;;;;;;0.50;0.30;;;;;;;25.87;55.58;99319.34;10247384;28;96591;-81
2023/06/08 13:12:28;;;;;;;0.43;0.22;;;;;;;26.49;54.66;99302.97;10208433;28;96748;-81
2023/06/08 13:17:31;;;;;;;0.28;0.28;;;;;;;26.74;53.52;99329.53;10208296;28;96778;-81
2023/06/08 13:22:36;;;;;;;0.30;0.20;;;;;;;26.57;53.13;99313.69;10207960;28;96841;-81
2023/06/08 13:27:39;;;;;;;0.43;0.20;;;;;;;26.66;52.95;99290.97;10207495;28;96842;-81
2023/06/08 13:32:43;;;;;;;1.25;1.13;;;;;;;26.76;52.65;99294.22;10207138;28;97768;-81
2023/06/08 13:37:51;;;;;;;0.93;0.50;;;;;;;26.81;51.93;99286.41;10206417;28;96740;-81
2023/06/08 13:42:54;;;;;;;0.65;0.32;;;;;;;26.97;52.31;99278.13;10207224;28;96714;-81
2023/06/08 13:47:58;;;;;;;0.30;0.20;;;;;;;27.64;51.02;99273.28;10206580;28;96758;-81
2023/06/08 13:53:20;;;;;;;0.28;0.20;;;;;;;28.10;50.83;99266.47;10207274;28;97226;-81
2023/06/08 13:58:24;;;;;;;0.30;0.30;;;;;;;28.15;51.31;99266.75;10207253;28;97784;-81
2023/06/08 14:03:27;;;;;;;;;;;;;;;27.53;50.94;99261.13;10207684;28;96773;-81
2023/06/08 14:08:32;;;;;;;0.25;0.17;;;;;;;27.13;50.51;99269.00;10208438;28;96838;-81
2023/06/08 14:13:35;;;;;;;0.32;0.22;;;;;;;27.63;49.08;99266.22;10213660;28;96799;-81
2023/06/08 14:18:39;;;;;;;0.30;0.25;;;;;;;27.71;47.88;99275.06;10213536;28;97687;-81
2023/06/08 14:23:44;;;;;;;0.50;0.32;;;;;;;27.88;46.78;99267.53;10212453;28;96685;-81
2023/06/08 14:28:47;;;;;;;0.70;0.50;;;;;;;27.92;46.82;99263.41;10212516;28;96696;-81
2023/06/08 14:33:51;;;;;;;0.20;0.20;;;;;;;27.57;46.78;99242.66;10212574;28;96895;-81
2023/06/08 14:38:55;;;;;;;0.55;0.30;;;;;;;27.57;46.53;99238.09;10213143;28;96937;-81
2023/06/08 14:43:59;;;;;;;0.40;0.20;;;;;;;27.61;45.73;99258.31;10212420;28;96890;-81
2023/06/08 14:49:03;;;;;;;0.75;0.40;;;;;;;27.56;46.86;99238.28;10212436;28;96716;-81
2023/06/08 14:54:08;;;;;;;0.70;0.43;;;;;;;27.15;47.86;99243.44;10216026;28;97109;-81
2023/06/08 14:59:11;;;;;;;0.93;0.63;;;;;;;26.66;47.63;99240.50;10253322;28;96676;-81
2023/06/08 15:04:15;;;;;;;0.70;0.40;;;;;;;27.15;48.44;99226.44;10252001;28;96814;-81
2023/06/08 15:09:20;;;;;;;0.98;0.57;;;;;;;27.11;48.15;99212.47;10248489;28;96814;-81
2023/06/08 15:14:24;;;;;;;0.50;0.38;;;;;;;27.25;48.03;99219.66;10211301;28;97881;-81
2023/06/08 15:19:27;;;;;;;0.50;0.38;;;;;;;27.31;48.16;99218.91;10211364;28;96663;-81
2023/06/08 15:24:32;;;;;;;1.08;0.70;;;;;;;27.07;47.88;99215.72;10208670;28;96760;-81
2023/06/08 15:29:35;;;;;;;0.38;0.35;;;;;;;26.83;49.70;99235.78;10226884;28;96745;-81
2023/06/08 15:34:39;;;;;;;0.95;0.50;;;;;;;26.71;50.54;99231.88;10251393;28;96864;-81
2023/06/08 15:39:44;;;;;;;1.42;0.50;;;;;;;26.78;50.71;99225.50;10240734;28;96844;-80
2023/06/08 15:44:47;;;;;;;0.77;0.60;;;;;;;26.59;50.93;99226.09;10210982;28;97555;-80
2023/06/08 15:49:50;;;;;;;1.00;0.60;;;;;;;26.82;50.41;99216.03;10211147;28;96717;-80
2023/06/08 15:54:55;;;;;;;1.15;0.68;;;;;;;26.69;49.87;99210.47;10210539;28;96864;-80
2023/06/08 15:59:58;;;;;;;0.68;0.60;;;;;;;26.61;50.22;99193.53;10210222;28;97477;-80
2023/06/08 16:05:03;;;;;;;0.82;0.60;;;;;;;26.70;50.91;99182.44;10208798;28;96602;-81
2023/06/08 16:10:08;;;;;;;0.95;0.60;;;;;;;26.68;50.79;99186.38;10209550;28;96783;-80
2023/06/08 16:15:12;;;;;;;2.15;0.90;;;;;;;26.47;50.47;99168.22;10209788;28;96547;-80
2023/06/08 16:20:33;;;;;;;1.50;0.60;;;;;;;26.67;50.58;99179.28;10203628;28;96655;-81
2023/06/08 16:25:55;;;;;;;0.82;0.70;;;;;;;26.53;49.65;99164.78;10202958;28;96702;-80
2023/06/08 16:30:58;;;;;;;1.02;0.73;;;;;;;26.79;49.81;99165.13;10209512;28;97097;-81
2023/06/08 16:36:02;;;;;;;0.77;0.65;;;;;;;26.68;50.15;99173.69;10209074;28;96626;-81
2023/06/08 16:41:06;;;;;;;0.70;0.67;;;;;;;26.45;50.83;99172.16;10209751;28;96587;-80
2023/06/08 16:46:10;;;;;;;1.20;0.73;;;;;;;26.08;52.55;99161.41;10208377;28;98250;-80
2023/06/08 16:51:13;;;;;;;1.02;0.90;;;;;;;25.58;53.93;99152.13;10209029;28;96596;-80
2023/06/08 16:56:19;;;;;;;2.58;0.98;;;;;;;25.15;56.14;99187.81;10208349;28;97004;-80
2023/06/08 17:01:22;;;;;;;1.38;0.90;;;;;;;24.57;59.33;99207.09;10208489;28;96733;-80
2023/06/08 17:06:25;;;;;;;1.07;0.97;;;;;;;23.89;61.24;99202.41;10207868;28;96921;-80
2023/06/08 17:11:31;;;;;;;1.90;1.20;;;;;;;23.76;61.61;99189.47;10208645;28;97891;-80
2023/06/08 17:16:34;;;;;;;2.08;1.00;;;;;;;23.89;61.47;99183.59;10207954;28;96475;-79
2023/06/08 17:21:38;;;;;;;1.93;0.87;;;;;;;23.86;62.02;99184.75;10207531;28;96868;-80
2023/06/08 17:26:42;;;;;;;2.17;1.10;;;;;;;23.82;62.70;99183.44;10208024;28;97467;-80
2023/06/08 17:31:45;;;;;;;3.00;1.95;;;;;;;23.46;65.44;99201.72;10208575;28;96741;-80
2023/06/08 17:36:49;;;;;;;2.07;1.00;;;;;;;23.43;65.84;99215.47;10207176;28;99555;-80
2023/06/08 17:41:54;;;;;;;2.00;1.10;;;;;;;23.50;65.82;99223.69;10206943;28;96741;-80
2023/06/08 17:46:57;;;;;;;3.58;1.10;;;;;;;23.69;65.63;99224.25;10238592;28;97070;-80
2023/06/08 17:52:00;;;;;;;1.63;0.93;;;;;;;23.93;65.33;99223.38;10254724;28;96683;-80
2023/06/08 17:57:06;;;;;;;3.30;1.40;;;;;;;23.79;66.31;99221.38;10254241;28;97598;-80
2023/06/08 18:02:09;;;;;;;2.00;1.17;;;;;;;23.62;66.93;99227.75;10253411;28;97481;-81
2023/06/08 18:07:12;;;;;;;1.30;0.90;;;;;;;23.50;67.24;99219.19;10253352;28;96834;-81
2023/06/08 18:12:17;;;;;;;1.70;0.97;;;;;;;23.39;67.44;99219.50;10240088;28;96594;-81
2023/06/08 18:17:20;;;;;;;1.45;0.88;;;;;;;23.40;67.29;99220.34;10213235;28;96819;-81
2023/06/08 18:22:25;;;;;;;0.93;0.67;;;;;;;23.19;68.13;99209.22;10215134;28;97626;-81
2023/06/08 18:27:32;;;;;;;1.58;1.02;;;;;;;23.06;68.84;99198.97;10211144;28;97987;-80
2023/06/08 18:32:37;;;;;;;3.22;1.02;;;;;;;22.96;69.33;99210.84;10213056;28;97761;-79
2023/06/08 18:37:40;;;;;;;1.30;0.90;;;;;;;23.22;68.81;99215.09;10235650;28;96714;-80
2023/06/08 18:42:45;;;;;;;2.77;1.17;;;;;;;23.10;69.59;99234.38;10235937;28;97601;-80
2023/06/08 18:47:49;;;;;;;2.55;1.10;;;;;;;23.12;69.71;99237.72;10212168;28;97821;-80
2023/06/08 18:52:52;;;;;;;1.45;1.13;;;;;;;23.09;70.57;99244.28;10212843;28;96803;-80
2023/06/08 18:57:58;;;;;;;2.37;1.17;;;;;;;23.01;71.39;99273.75;10210925;28;97597;-80
2023/06/08 19:03:01;;;;;;;2.00;1.05;;;;;;;22.96;72.11;99275.25;10211557;28;96756;-80
2023/06/08 19:08:05;;;;;;;2.73;1.30;;;;;;;22.89;72.23;99280.44;10211775;28;96571;-80
2023/06/08 19:13:11;;;;;;;3.50;1.30;;;;;;;22.87;72.93;99273.56;10212742;28;97836;-81
2023/06/08 19:18:16;;;;;;;1.98;1.50;;;;;;;22.51;74.81;99272.84;10211510;28;97256;-80
2023/06/08 19:23:19;;;;;;;1.52;1.15;;;;;;;22.56;74.53;99252.59;10211451;28;96713;-80
2023/06/08 19:28:24;;;;;;;2.70;1.40;;;;;;;22.58;74.51;99261.34;10210596;28;97308;-80
2023/06/08 19:33:27;;;;;;;1.40;1.20;;;;;;;22.58;74.64;99279.25;10210884;28;96942;-80
2023/06/08 19:38:50;;;;;;;2.83;1.38;;;;;;;22.70;74.62;99290.56;10210437;28;97813;-80
2023/06/08 19:43:55;;;;;;;2.47;1.33;;;;;;;22.54;75.09;99292.13;10211064;28;96691;-80
2023/06/08 19:48:58;;;;;;;1.88;1.30;;;;;;;22.55;75.24;99283.13;10210370;28;96632;-80
2023/06/08 19:54:01;;;;;;;1.75;0.90;;;;;;;22.41;75.96;99296.25;10210232;28;97406;-81
2023/06/08 19:59:06;;;;;;;1.50;1.00;;;;;;;22.37;75.45;99309.13;10210112;28;96593;-80
2023/06/08 20:04:09;;;;;;;1.52;1.00;;;;;;;22.41;75.13;99325.75;10210934;28;97561;-80
2023/06/08 20:09:13;;;;;;;1.42;1.02;;;;;;;22.39;75.33;99336.63;10209695;28;96699;-78
2023/06/08 20:14:18;;;;;;;1.60;1.10;;;;;;;22.42;75.48;99330.94;10209695;28;98402;-78
2023/06/08 20:19:22;;;;;;;2.78;1.10;;;;;;;22.23;76.00;99325.78;10230602;28;97563;-80
2023/06/08 20:24:25;;;;;;;2.00;1.13;;;;;;;22.17;76.82;99321.06;10249967;28;97018;-80
2023/06/08 20:29:30;;;;;;;1.67;1.02;;;;;;;21.99;77.41;99322.06;10250008;28;97759;-80
2023/06/08 20:34:33;;;;;;;2.08;1.10;;;;;;;21.70;78.33;99329.47;10248225;28;96838;-80
2023/06/08 20:39:37;;;;;;;1.58;1.17;;;;;;;21.66;78.31;99339.66;10249592;28;97429;-80
2023/06/08 20:44:41;;;;;;;2.20;0.90;;;;;;;21.63;78.06;99337.28;10233835;28;96867;-80
2023/06/08 20:49:45;;;;;;;1.10;0.93;;;;;;;21.72;77.26;99338.22;10208804;28;96978;-79
2023/06/08 20:54:48;;;;;;;1.43;1.07;;;;;;;21.62;77.64;99356.19;10209809;28;97629;-80
2023/06/08 20:59:53;;;;;;;1.97;1.00;;;;;;;21.62;77.48;99362.41;10208431;28;96707;-79
2023/06/08 21:04:56;;;;;;;2.28;1.25;;;;;;;21.69;77.29;99374.19;10207966;28;96837;-77
2023/06/08 21:10:00;;;;;;;1.63;0.90;;;;;;;21.77;77.43;99378.78;10207931;28;96703;-78
2023/06/08 21:15:05;;;;;;;2.17;0.83;;;;;;;21.64;77.78;99373.78;10208363;28;97613;-79
2023/06/08 21:20:11;;;;;;;1.42;0.90;;;;;;;21.70;77.63;99389.25;10211277;28;96857;-79
2023/06/08 21:25:15;;;;;;;2.00;0.85;;;;;;;21.71;77.45;99387.44;10218122;28;96730;-79
2023/06/08 21:30:20;;;;;;;1.53;0.90;;;;;;;21.83;77.27;99380.84;10255319;28;97122;-78
2023/06/08 21:35:23;;;;;;;2.72;0.80;;;;;;;21.73;77.40;99377.41;10254503;28;96946;-78
2023/06/08 21:40:27;;;;;;;1.83;0.60;;;;;;;21.53;77.95;99374.00;10255025;28;96655;-79
2023/06/08 21:45:32;;;;;;;1.45;0.80;;;;;;;21.56;78.04;99373.69;10232288;28;97446;-78
2023/06/08 21:50:35;;;;;;;0.82;0.73;;;;;;;21.64;78.09;99362.25;10214276;28;97128;-78
2023/06/08 21:55:39;;;;;;;0.90;0.60;;;;;;;21.56;78.20;99368.34;10214185;28;96758;-78
2023/06/08 22:00:43;;;;;;;1.52;0.68;;;;;;;21.46;78.33;99373.78;10213666;28;97798;-78
2023/06/08 22:05:47;;;;;;;1.75;0.90;;;;;;;21.34;78.91;99364.28;10234767;22;98065;-78
2023/06/08 22:10:51;;;;;;;1.20;0.90;;;;;;;21.46;78.68;99370.25;10253776;28;96669;-78
2023/06/08 22:15:55;;;;;;;1.83;1.20;;;;;;;21.37;78.82;99372.00;10236903;28;96795;-78
2023/06/08 22:21:00;;;;;;;1.52;0.93;;;;;;;21.35;78.83;99378.47;10212947;28;97611;-78
2023/06/08 22:26:04;;;;;;;1.10;0.50;;;;;;;21.32;78.50;99381.47;10213225;28;97557;-78
2023/06/08 22:31:08;;;;;;;0.85;0.40;;;;;;;21.46;77.47;99373.78;10213004;28;96681;-78
2023/06/08 22:36:13;;;;;;;1.70;0.80;;;;;;;21.33;78.35;99375.09;10213860;28;96837;-78
2023/06/08 22:41:17;;;;;;;0.68;0.52;;;;;;;21.19;79.07;99367.59;10212618;28;96654;-78
2023/06/08 22:46:21;;;;;;;0.90;0.80;;;;;;;21.13;79.25;99365.47;10212412;28;96962;-78
2023/06/08 22:51:25;;;;;;;0.75;0.68;;;;;;;21.24;78.67;99373.34;10211926;28;96669;-79
2023/06/08 22:56:28;;;;;;;1.00;0.73;;;;;;;21.29;78.28;99361.19;10211983;28;96602;-79
2023/06/08 23:01:34;;;;;;;1.15;0.68;;;;;;;21.14;78.66;99359.97;10212221;28;96779;-79
2023/06/08 23:06:37;;;;;;;2.30;0.70;;;;;;;20.92;79.41;99357.69;10211773;28;96631;-79
2023/06/08 23:11:40;;;;;;;1.40;0.80;;;;;;;20.84;80.09;99370.13;10171892;28;96756;-79
2023/06/08 23:16:48;;;;;;;1.97;0.97;;;;;;;20.76;80.33;99367.31;10195715;28;97794;-79
2023/06/08 23:21:53;;;;;;;1.33;0.80;;;;;;;20.87;79.77;99377.84;10211223;28;96725;-79
2023/06/08 23:26:56;;;;;;;1.67;0.90;;;;;;;20.95;79.37;99370.75;10212391;28;96589;-79
2023/06/08 23:32:01;;;;;;;1.77;0.60;;;;;;;21.06;79.24;99353.69;10211336;28;96746;-79
2023/06/08 23:37:05;;;;;;;1.92;0.60;;;;;;;21.05;78.71;99368.06;10210845;28;97172;-78
2023/06/08 23:42:09;;;;;;;1.20;0.80;;;;;;;20.88;79.16;99368.84;10209665;28;96623;-78